sensor_id;sensor_type;location;lat;lon;timestamp;P1;durP1;ratioP1;P2;durP2;ratioP2
22935;SDS011;11633;42.716;23.312;2022-08-19T00:02:13;2.40;;;1.83;;
22935;SDS011;11633;42.716;23.312;2022-08-19T00:04:39;2.60;;;2.10;;
22935;SDS011;11633;42.716;23.312;2022-08-19T00:07:05;2.58;;;2.13;;
22935;SDS011;11633;42.716;23.312;2022-08-19T00:09:31;2.50;;;2.30;;
22935;SDS011;11633;42.716;23.312;2022-08-19T00:11:56;3.05;;;2.10;;
22935;SDS011;11633;42.716;23.312;2022-08-19T00:14:23;2.30;;;2.03;;
22935;SDS011;11633;42.716;23.312;2022-08-19T00:16:49;2.95;;;1.88;;
22935;SDS011;11633;42.716;23.312;2022-08-19T00:19:16;3.50;;;2.17;;
22935;SDS011;11633;42.716;23.312;2022-08-19T00:21:42;3.53;;;2.47;;
22935;SDS011;11633;42.716;23.312;2022-08-19T00:24:08;2.67;;;2.20;;
22935;SDS011;11633;42.716;23.312;2022-08-19T00:26:34;2.40;;;2.10;;
22935;SDS011;11633;42.716;23.312;2022-08-19T00:28:59;2.80;;;2.40;;
22935;SDS011;11633;42.716;23.312;2022-08-19T00:31:26;2.78;;;2.28;;
22935;SDS011;11633;42.716;23.312;2022-08-19T00:33:52;2.30;;;2.05;;
22935;SDS011;11633;42.716;23.312;2022-08-19T00:36:18;1.88;;;1.67;;
22935;SDS011;11633;42.716;23.312;2022-08-19T00:38:43;2.75;;;2.22;;
22935;SDS011;11633;42.716;23.312;2022-08-19T00:41:12;5.10;;;2.42;;
22935;SDS011;11633;42.716;23.312;2022-08-19T00:43:38;2.63;;;2.28;;
22935;SDS011;11633;42.716;23.312;2022-08-19T00:46:05;2.40;;;2.10;;
22935;SDS011;11633;42.716;23.312;2022-08-19T00:48:31;3.75;;;2.85;;
22935;SDS011;11633;42.716;23.312;2022-08-19T00:50:56;2.72;;;2.20;;
22935;SDS011;11633;42.716;23.312;2022-08-19T00:56:06;2.10;;;1.90;;
22935;SDS011;11633;42.716;23.312;2022-08-19T00:58:32;2.85;;;2.15;;
22935;SDS011;11633;42.716;23.312;2022-08-19T01:00:58;2.05;;;1.90;;
22935;SDS011;11633;42.716;23.312;2022-08-19T01:03:24;2.20;;;2.00;;
22935;SDS011;11633;42.716;23.312;2022-08-19T01:05:49;2.50;;;2.30;;
22935;SDS011;11633;42.716;23.312;2022-08-19T01:08:16;2.05;;;1.90;;
22935;SDS011;11633;42.716;23.312;2022-08-19T01:10:44;2.80;;;2.28;;
22935;SDS011;11633;42.716;23.312;2022-08-19T01:13:09;2.42;;;2.00;;
22935;SDS011;11633;42.716;23.312;2022-08-19T01:15:38;2.75;;;2.38;;
22935;SDS011;11633;42.716;23.312;2022-08-19T01:18:06;2.83;;;2.35;;
22935;SDS011;11633;42.716;23.312;2022-08-19T01:20:32;2.10;;;1.70;;
22935;SDS011;11633;42.716;23.312;2022-08-19T01:22:58;2.83;;;2.28;;
22935;SDS011;11633;42.716;23.312;2022-08-19T01:25:25;2.03;;;1.83;;
22935;SDS011;11633;42.716;23.312;2022-08-19T01:27:51;2.53;;;2.33;;
22935;SDS011;11633;42.716;23.312;2022-08-19T01:30:19;4.03;;;2.42;;
22935;SDS011;11633;42.716;23.312;2022-08-19T01:32:44;2.75;;;2.55;;
22935;SDS011;11633;42.716;23.312;2022-08-19T01:35:10;3.40;;;2.53;;
22935;SDS011;11633;42.716;23.312;2022-08-19T01:40:14;3.55;;;2.55;;
22935;SDS011;11633;42.716;23.312;2022-08-19T01:42:39;2.67;;;2.28;;
22935;SDS011;11633;42.716;23.312;2022-08-19T01:45:05;2.22;;;2.03;;
22935;SDS011;11633;42.716;23.312;2022-08-19T01:47:33;4.38;;;3.42;;
22935;SDS011;11633;42.716;23.312;2022-08-19T01:49:58;2.55;;;2.33;;
22935;SDS011;11633;42.716;23.312;2022-08-19T01:52:23;3.03;;;2.70;;
22935;SDS011;11633;42.716;23.312;2022-08-19T01:54:49;2.50;;;2.30;;
22935;SDS011;11633;42.716;23.312;2022-08-19T01:57:14;2.63;;;2.42;;
22935;SDS011;11633;42.716;23.312;2022-08-19T01:59:41;2.92;;;2.35;;
22935;SDS011;11633;42.716;23.312;2022-08-19T02:02:07;3.50;;;2.70;;
22935;SDS011;11633;42.716;23.312;2022-08-19T02:04:33;3.25;;;2.95;;
22935;SDS011;11633;42.716;23.312;2022-08-19T02:06:59;3.95;;;2.58;;
22935;SDS011;11633;42.716;23.312;2022-08-19T02:09:24;4.53;;;3.25;;
22935;SDS011;11633;42.716;23.312;2022-08-19T02:11:49;3.25;;;2.60;;
22935;SDS011;11633;42.716;23.312;2022-08-19T02:14:14;4.25;;;3.35;;
22935;SDS011;11633;42.716;23.312;2022-08-19T02:16:40;4.30;;;3.70;;
22935;SDS011;11633;42.716;23.312;2022-08-19T02:19:05;4.13;;;3.63;;
22935;SDS011;11633;42.716;23.312;2022-08-19T02:21:33;14.00;;;12.07;;
22935;SDS011;11633;42.716;23.312;2022-08-19T02:23:58;9.60;;;8.60;;
22935;SDS011;11633;42.716;23.312;2022-08-19T02:26:24;4.40;;;3.40;;
22935;SDS011;11633;42.716;23.312;2022-08-19T02:28:51;3.30;;;2.92;;
22935;SDS011;11633;42.716;23.312;2022-08-19T02:31:17;4.60;;;3.92;;
22935;SDS011;11633;42.716;23.312;2022-08-19T02:33:43;22.60;;;20.27;;
22935;SDS011;11633;42.716;23.312;2022-08-19T02:36:09;13.20;;;11.38;;
22935;SDS011;11633;42.716;23.312;2022-08-19T02:38:35;5.90;;;3.72;;
22935;SDS011;11633;42.716;23.312;2022-08-19T02:41:06;3.17;;;2.72;;
22935;SDS011;11633;42.716;23.312;2022-08-19T02:43:32;3.38;;;3.08;;
22935;SDS011;11633;42.716;23.312;2022-08-19T02:45:59;4.28;;;2.88;;
22935;SDS011;11633;42.716;23.312;2022-08-19T02:48:25;3.72;;;3.33;;
22935;SDS011;11633;42.716;23.312;2022-08-19T02:50:51;2.78;;;2.58;;
22935;SDS011;11633;42.716;23.312;2022-08-19T02:53:20;3.72;;;3.33;;
22935;SDS011;11633;42.716;23.312;2022-08-19T02:55:47;6.32;;;3.63;;
22935;SDS011;11633;42.716;23.312;2022-08-19T02:58:12;2.90;;;2.60;;
22935;SDS011;11633;42.716;23.312;2022-08-19T03:00:45;4.07;;;3.25;;
22935;SDS011;11633;42.716;23.312;2022-08-19T03:03:11;4.18;;;3.75;;
22935;SDS011;11633;42.716;23.312;2022-08-19T03:05:36;5.18;;;3.35;;
22935;SDS011;11633;42.716;23.312;2022-08-19T03:08:02;3.20;;;2.72;;
22935;SDS011;11633;42.716;23.312;2022-08-19T03:10:28;3.90;;;3.22;;
22935;SDS011;11633;42.716;23.312;2022-08-19T03:12:53;4.32;;;3.38;;
22935;SDS011;11633;42.716;23.312;2022-08-19T03:15:18;3.17;;;2.88;;
22935;SDS011;11633;42.716;23.312;2022-08-19T03:17:44;3.85;;;3.47;;
22935;SDS011;11633;42.716;23.312;2022-08-19T03:20:09;4.35;;;3.28;;
22935;SDS011;11633;42.716;23.312;2022-08-19T03:22:34;3.97;;;3.58;;
22935;SDS011;11633;42.716;23.312;2022-08-19T03:25:00;4.55;;;3.63;;
22935;SDS011;11633;42.716;23.312;2022-08-19T03:27:25;4.05;;;3.63;;
22935;SDS011;11633;42.716;23.312;2022-08-19T03:29:51;4.68;;;3.28;;
22935;SDS011;11633;42.716;23.312;2022-08-19T03:32:16;4.30;;;3.50;;
22935;SDS011;11633;42.716;23.312;2022-08-19T03:34:41;3.17;;;2.88;;
22935;SDS011;11633;42.716;23.312;2022-08-19T03:37:09;5.40;;;3.20;;
22935;SDS011;11633;42.716;23.312;2022-08-19T03:39:35;4.22;;;3.83;;
22935;SDS011;11633;42.716;23.312;2022-08-19T03:42:01;3.70;;;3.40;;
22935;SDS011;11633;42.716;23.312;2022-08-19T03:44:27;3.78;;;3.33;;
22935;SDS011;11633;42.716;23.312;2022-08-19T03:46:55;4.10;;;3.05;;
22935;SDS011;11633;42.716;23.312;2022-08-19T03:49:20;3.75;;;3.35;;
22935;SDS011;11633;42.716;23.312;2022-08-19T03:51:47;4.93;;;3.53;;
22935;SDS011;11633;42.716;23.312;2022-08-19T03:54:14;5.03;;;3.72;;
22935;SDS011;11633;42.716;23.312;2022-08-19T03:56:40;4.05;;;3.65;;
22935;SDS011;11633;42.716;23.312;2022-08-19T03:59:06;4.00;;;3.35;;
22935;SDS011;11633;42.716;23.312;2022-08-19T04:01:32;3.85;;;3.45;;
22935;SDS011;11633;42.716;23.312;2022-08-19T04:03:58;3.60;;;3.30;;
22935;SDS011;11633;42.716;23.312;2022-08-19T04:06:25;4.80;;;3.78;;
22935;SDS011;11633;42.716;23.312;2022-08-19T04:08:51;5.55;;;2.95;;
22935;SDS011;11633;42.716;23.312;2022-08-19T04:11:18;4.53;;;3.47;;
22935;SDS011;11633;42.716;23.312;2022-08-19T04:13:45;6.72;;;3.42;;
22935;SDS011;11633;42.716;23.312;2022-08-19T04:16:10;5.13;;;3.42;;
22935;SDS011;11633;42.716;23.312;2022-08-19T04:18:37;6.78;;;3.85;;
22935;SDS011;11633;42.716;23.312;2022-08-19T04:21:03;5.43;;;3.25;;
22935;SDS011;11633;42.716;23.312;2022-08-19T04:23:28;4.00;;;3.40;;
22935;SDS011;11633;42.716;23.312;2022-08-19T04:25:54;5.97;;;2.70;;
22935;SDS011;11633;42.716;23.312;2022-08-19T04:28:20;4.05;;;3.67;;
22935;SDS011;11633;42.716;23.312;2022-08-19T04:30:48;4.72;;;3.60;;
22935;SDS011;11633;42.716;23.312;2022-08-19T04:33:14;4.15;;;3.65;;
22935;SDS011;11633;42.716;23.312;2022-08-19T04:35:41;3.70;;;3.40;;
22935;SDS011;11633;42.716;23.312;2022-08-19T04:38:07;4.47;;;4.07;;
22935;SDS011;11633;42.716;23.312;2022-08-19T04:40:32;4.47;;;3.80;;
22935;SDS011;11633;42.716;23.312;2022-08-19T04:43:16;3.60;;;3.30;;
22935;SDS011;11633;42.716;23.312;2022-08-19T04:45:42;4.90;;;3.78;;
22935;SDS011;11633;42.716;23.312;2022-08-19T04:48:08;4.60;;;3.30;;
22935;SDS011;11633;42.716;23.312;2022-08-19T04:50:33;5.25;;;3.80;;
22935;SDS011;11633;42.716;23.312;2022-08-19T04:52:59;5.97;;;4.72;;
22935;SDS011;11633;42.716;23.312;2022-08-19T04:55:24;4.40;;;3.95;;
22935;SDS011;11633;42.716;23.312;2022-08-19T04:57:53;6.90;;;4.18;;
22935;SDS011;11633;42.716;23.312;2022-08-19T05:00:18;7.10;;;4.60;;
22935;SDS011;11633;42.716;23.312;2022-08-19T05:02:44;5.57;;;4.95;;
22935;SDS011;11633;42.716;23.312;2022-08-19T05:05:09;5.20;;;4.53;;
22935;SDS011;11633;42.716;23.312;2022-08-19T05:07:34;6.32;;;4.15;;
22935;SDS011;11633;42.716;23.312;2022-08-19T05:10:00;7.90;;;4.03;;
22935;SDS011;11633;42.716;23.312;2022-08-19T05:12:25;7.30;;;3.97;;
22935;SDS011;11633;42.716;23.312;2022-08-19T05:14:52;8.50;;;4.55;;
22935;SDS011;11633;42.716;23.312;2022-08-19T05:17:17;5.68;;;4.45;;
22935;SDS011;11633;42.716;23.312;2022-08-19T05:19:43;7.13;;;4.60;;
22935;SDS011;11633;42.716;23.312;2022-08-19T05:22:26;8.13;;;6.10;;
22935;SDS011;11633;42.716;23.312;2022-08-19T05:24:59;7.78;;;5.80;;
22935;SDS011;11633;42.716;23.312;2022-08-19T05:27:25;5.35;;;4.55;;
22935;SDS011;11633;42.716;23.312;2022-08-19T05:29:57;6.57;;;5.85;;
22935;SDS011;11633;42.716;23.312;2022-08-19T05:32:22;5.57;;;5.00;;
22935;SDS011;11633;42.716;23.312;2022-08-19T05:34:48;6.03;;;5.28;;
22935;SDS011;11633;42.716;23.312;2022-08-19T05:37:14;6.55;;;5.57;;
22935;SDS011;11633;42.716;23.312;2022-08-19T05:39:39;5.80;;;4.70;;
22935;SDS011;11633;42.716;23.312;2022-08-19T05:42:06;6.47;;;5.55;;
22935;SDS011;11633;42.716;23.312;2022-08-19T05:44:33;5.47;;;4.97;;
22935;SDS011;11633;42.716;23.312;2022-08-19T05:46:59;5.90;;;5.32;;
22935;SDS011;11633;42.716;23.312;2022-08-19T05:49:26;5.85;;;5.35;;
22935;SDS011;11633;42.716;23.312;2022-08-19T05:51:52;5.53;;;5.03;;
22935;SDS011;11633;42.716;23.312;2022-08-19T05:54:18;6.15;;;5.53;;
22935;SDS011;11633;42.716;23.312;2022-08-19T05:56:44;5.57;;;5.07;;
22935;SDS011;11633;42.716;23.312;2022-08-19T05:59:12;7.25;;;5.43;;
22935;SDS011;11633;42.716;23.312;2022-08-19T06:01:38;5.88;;;5.28;;
22935;SDS011;11633;42.716;23.312;2022-08-19T06:04:03;6.32;;;5.72;;
22935;SDS011;11633;42.716;23.312;2022-08-19T06:06:29;7.45;;;5.65;;
22935;SDS011;11633;42.716;23.312;2022-08-19T06:10:35;4.70;;;4.40;;
22935;SDS011;11633;42.716;23.312;2022-08-19T06:13:01;4.13;;;3.83;;
22935;SDS011;11633;42.716;23.312;2022-08-19T06:15:27;4.27;;;3.87;;
22935;SDS011;11633;42.716;23.312;2022-08-19T06:17:53;3.97;;;3.67;;
22935;SDS011;11633;42.716;23.312;2022-08-19T06:20:18;5.27;;;4.77;;
22935;SDS011;11633;42.716;23.312;2022-08-19T06:22:46;4.47;;;4.00;;
22935;SDS011;11633;42.716;23.312;2022-08-19T06:25:12;4.40;;;4.00;;
22935;SDS011;11633;42.716;23.312;2022-08-19T06:27:38;5.70;;;5.20;;
22935;SDS011;11633;42.716;23.312;2022-08-19T06:30:04;4.43;;;4.03;;
22935;SDS011;11633;42.716;23.312;2022-08-19T06:32:29;5.13;;;4.10;;
22935;SDS011;11633;42.716;23.312;2022-08-19T06:34:55;5.38;;;4.80;;
22935;SDS011;11633;42.716;23.312;2022-08-19T06:37:20;6.93;;;5.50;;
22935;SDS011;11633;42.716;23.312;2022-08-19T06:39:46;4.85;;;4.10;;
22935;SDS011;11633;42.716;23.312;2022-08-19T06:42:12;5.00;;;4.30;;
22935;SDS011;11633;42.716;23.312;2022-08-19T06:44:41;4.65;;;4.25;;
22935;SDS011;11633;42.716;23.312;2022-08-19T06:47:08;4.75;;;4.35;;
22935;SDS011;11633;42.716;23.312;2022-08-19T06:49:34;4.47;;;4.05;;
22935;SDS011;11633;42.716;23.312;2022-08-19T06:52:00;4.97;;;3.90;;
22935;SDS011;11633;42.716;23.312;2022-08-19T06:54:26;4.53;;;4.13;;
22935;SDS011;11633;42.716;23.312;2022-08-19T06:56:53;4.78;;;4.07;;
22935;SDS011;11633;42.716;23.312;2022-08-19T06:59:20;4.07;;;3.75;;
22935;SDS011;11633;42.716;23.312;2022-08-19T07:01:49;3.95;;;3.65;;
22935;SDS011;11633;42.716;23.312;2022-08-19T07:04:15;4.60;;;4.03;;
22935;SDS011;11633;42.716;23.312;2022-08-19T07:06:41;3.92;;;3.63;;
22935;SDS011;11633;42.716;23.312;2022-08-19T07:09:08;3.90;;;3.60;;
22935;SDS011;11633;42.716;23.312;2022-08-19T07:11:33;4.20;;;3.80;;
22935;SDS011;11633;42.716;23.312;2022-08-19T07:13:59;4.45;;;3.90;;
22935;SDS011;11633;42.716;23.312;2022-08-19T07:16:25;8.70;;;4.10;;
22935;SDS011;11633;42.716;23.312;2022-08-19T07:18:51;4.20;;;3.80;;
22935;SDS011;11633;42.716;23.312;2022-08-19T07:21:18;4.05;;;3.75;;
22935;SDS011;11633;42.716;23.312;2022-08-19T07:23:44;4.43;;;4.03;;
22935;SDS011;11633;42.716;23.312;2022-08-19T07:26:16;5.25;;;4.47;;
22935;SDS011;11633;42.716;23.312;2022-08-19T07:28:42;3.30;;;3.00;;
22935;SDS011;11633;42.716;23.312;2022-08-19T07:31:12;3.88;;;3.53;;
22935;SDS011;11633;42.716;23.312;2022-08-19T07:33:38;3.03;;;2.83;;
22935;SDS011;11633;42.716;23.312;2022-08-19T07:36:06;3.47;;;3.17;;
22935;SDS011;11633;42.716;23.312;2022-08-19T07:38:32;4.32;;;3.65;;
22935;SDS011;11633;42.716;23.312;2022-08-19T07:40:58;4.70;;;4.05;;
22935;SDS011;11633;42.716;23.312;2022-08-19T07:43:24;5.85;;;3.53;;
22935;SDS011;11633;42.716;23.312;2022-08-19T07:45:51;5.82;;;3.45;;
22935;SDS011;11633;42.716;23.312;2022-08-19T07:48:18;3.88;;;3.40;;
22935;SDS011;11633;42.716;23.312;2022-08-19T07:50:43;3.58;;;3.28;;
22935;SDS011;11633;42.716;23.312;2022-08-19T07:53:09;5.32;;;3.40;;
22935;SDS011;11633;42.716;23.312;2022-08-19T07:55:34;5.78;;;3.60;;
22935;SDS011;11633;42.716;23.312;2022-08-19T07:57:59;4.68;;;3.40;;
22935;SDS011;11633;42.716;23.312;2022-08-19T08:00:25;3.75;;;3.38;;
22935;SDS011;11633;42.716;23.312;2022-08-19T08:02:51;4.45;;;3.80;;
22935;SDS011;11633;42.716;23.312;2022-08-19T08:05:16;3.42;;;3.10;;
22935;SDS011;11633;42.716;23.312;2022-08-19T08:08:00;4.47;;;3.97;;
22935;SDS011;11633;42.716;23.312;2022-08-19T08:10:44;3.22;;;3.00;;
22935;SDS011;11633;42.716;23.312;2022-08-19T08:13:10;4.45;;;4.05;;
22935;SDS011;11633;42.716;23.312;2022-08-19T08:15:35;4.78;;;4.07;;
22935;SDS011;11633;42.716;23.312;2022-08-19T08:18:02;7.00;;;3.25;;
22935;SDS011;11633;42.716;23.312;2022-08-19T08:20:27;3.80;;;3.45;;
22935;SDS011;11633;42.716;23.312;2022-08-19T08:22:52;4.10;;;3.70;;
22935;SDS011;11633;42.716;23.312;2022-08-19T08:25:36;3.85;;;3.15;;
22935;SDS011;11633;42.716;23.312;2022-08-19T08:28:02;4.88;;;3.80;;
22935;SDS011;11633;42.716;23.312;2022-08-19T08:30:28;4.50;;;3.43;;
22935;SDS011;11633;42.716;23.312;2022-08-19T08:32:54;3.35;;;3.05;;
22935;SDS011;11633;42.716;23.312;2022-08-19T08:35:20;3.50;;;3.20;;
22935;SDS011;11633;42.716;23.312;2022-08-19T08:37:46;3.60;;;3.08;;
22935;SDS011;11633;42.716;23.312;2022-08-19T08:42:46;5.03;;;2.65;;
22935;SDS011;11633;42.716;23.312;2022-08-19T08:45:15;4.70;;;2.92;;
22935;SDS011;11633;42.716;23.312;2022-08-19T08:47:43;3.22;;;2.92;;
22935;SDS011;11633;42.716;23.312;2022-08-19T08:50:16;3.22;;;2.97;;
22935;SDS011;11633;42.716;23.312;2022-08-19T08:52:47;3.50;;;3.20;;
22935;SDS011;11633;42.716;23.312;2022-08-19T08:55:15;3.40;;;3.10;;
22935;SDS011;11633;42.716;23.312;2022-08-19T09:00:10;2.30;;;2.10;;
22935;SDS011;11633;42.716;23.312;2022-08-19T09:02:37;2.60;;;2.40;;
22935;SDS011;11633;42.716;23.312;2022-08-19T09:05:03;2.72;;;2.53;;
22935;SDS011;11633;42.716;23.312;2022-08-19T09:10:10;6.03;;;3.10;;
22935;SDS011;11633;42.716;23.312;2022-08-19T09:15:09;2.50;;;2.30;;
22935;SDS011;11633;42.716;23.312;2022-08-19T09:17:35;3.78;;;3.30;;
22935;SDS011;11633;42.716;23.312;2022-08-19T09:22:39;2.42;;;2.22;;
22935;SDS011;11633;42.716;23.312;2022-08-19T09:25:05;3.45;;;2.50;;
22935;SDS011;11633;42.716;23.312;2022-08-19T09:27:31;2.60;;;2.20;;
22935;SDS011;11633;42.716;23.312;2022-08-19T09:29:57;2.10;;;1.90;;
22935;SDS011;11633;42.716;23.312;2022-08-19T09:32:22;2.47;;;1.90;;
22935;SDS011;11633;42.716;23.312;2022-08-19T09:34:48;2.70;;;2.50;;
22935;SDS011;11633;42.716;23.312;2022-08-19T09:37:14;1.88;;;1.75;;
22935;SDS011;11633;42.716;23.312;2022-08-19T09:39:39;2.25;;;1.95;;
22935;SDS011;11633;42.716;23.312;2022-08-19T09:42:08;1.58;;;1.48;;
22935;SDS011;11633;42.716;23.312;2022-08-19T09:44:39;2.17;;;1.98;;
22935;SDS011;11633;42.716;23.312;2022-08-19T09:47:04;2.78;;;2.08;;
22935;SDS011;11633;42.716;23.312;2022-08-19T09:49:29;2.70;;;2.08;;
22935;SDS011;11633;42.716;23.312;2022-08-19T09:51:56;2.38;;;1.90;;
22935;SDS011;11633;42.716;23.312;2022-08-19T09:54:21;2.65;;;2.42;;
22935;SDS011;11633;42.716;23.312;2022-08-19T09:56:46;3.67;;;2.25;;
22935;SDS011;11633;42.716;23.312;2022-08-19T09:59:12;2.00;;;1.90;;
22935;SDS011;11633;42.716;23.312;2022-08-19T10:01:37;2.83;;;1.83;;
22935;SDS011;11633;42.716;23.312;2022-08-19T10:04:03;1.35;;;1.25;;
22935;SDS011;11633;42.716;23.312;2022-08-19T10:06:33;2.10;;;1.90;;
22935;SDS011;11633;42.716;23.312;2022-08-19T10:08:59;2.53;;;2.17;;
22935;SDS011;11633;42.716;23.312;2022-08-19T10:11:24;2.35;;;2.15;;
22935;SDS011;11633;42.716;23.312;2022-08-19T10:13:51;2.35;;;2.20;;
22935;SDS011;11633;42.716;23.312;2022-08-19T10:16:17;2.40;;;2.20;;
22935;SDS011;11633;42.716;23.312;2022-08-19T10:18:44;2.33;;;2.03;;
22935;SDS011;11633;42.716;23.312;2022-08-19T10:21:11;2.78;;;2.40;;
22935;SDS011;11633;42.716;23.312;2022-08-19T10:23:37;2.72;;;2.35;;
22935;SDS011;11633;42.716;23.312;2022-08-19T10:26:03;2.63;;;2.42;;
22935;SDS011;11633;42.716;23.312;2022-08-19T10:28:31;2.95;;;2.72;;
22935;SDS011;11633;42.716;23.312;2022-08-19T10:30:56;2.80;;;2.38;;
22935;SDS011;11633;42.716;23.312;2022-08-19T10:33:21;2.40;;;2.20;;
22935;SDS011;11633;42.716;23.312;2022-08-19T10:35:46;2.40;;;2.25;;
22935;SDS011;11633;42.716;23.312;2022-08-19T10:38:12;3.03;;;2.65;;
22935;SDS011;11633;42.716;23.312;2022-08-19T10:40:37;2.50;;;2.30;;
22935;SDS011;11633;42.716;23.312;2022-08-19T10:43:02;2.97;;;2.78;;
22935;SDS011;11633;42.716;23.312;2022-08-19T10:45:28;3.45;;;2.53;;
22935;SDS011;11633;42.716;23.312;2022-08-19T10:47:53;2.58;;;2.05;;
22935;SDS011;11633;42.716;23.312;2022-08-19T10:50:18;2.53;;;2.10;;
22935;SDS011;11633;42.716;23.312;2022-08-19T10:53:06;2.50;;;2.30;;
22935;SDS011;11633;42.716;23.312;2022-08-19T10:55:33;2.75;;;2.17;;
22935;SDS011;11633;42.716;23.312;2022-08-19T10:58:18;2.40;;;2.20;;
22935;SDS011;11633;42.716;23.312;2022-08-19T11:00:51;2.22;;;2.03;;
22935;SDS011;11633;42.716;23.312;2022-08-19T11:03:18;2.53;;;2.33;;
22935;SDS011;11633;42.716;23.312;2022-08-19T11:05:43;2.88;;;2.58;;
22935;SDS011;11633;42.716;23.312;2022-08-19T11:08:08;2.53;;;2.05;;
22935;SDS011;11633;42.716;23.312;2022-08-19T11:10:37;2.70;;;2.50;;
22935;SDS011;11633;42.716;23.312;2022-08-19T11:13:05;3.20;;;2.50;;
22935;SDS011;11633;42.716;23.312;2022-08-19T11:15:31;2.78;;;2.58;;
22935;SDS011;11633;42.716;23.312;2022-08-19T11:17:57;3.30;;;2.60;;
22935;SDS011;11633;42.716;23.312;2022-08-19T11:20:22;2.85;;;2.50;;
22935;SDS011;11633;42.716;23.312;2022-08-19T11:22:48;2.70;;;2.50;;
22935;SDS011;11633;42.716;23.312;2022-08-19T11:25:15;2.20;;;2.10;;
22935;SDS011;11633;42.716;23.312;2022-08-19T11:27:41;2.10;;;1.90;;
22935;SDS011;11633;42.716;23.312;2022-08-19T11:30:07;2.50;;;2.30;;
22935;SDS011;11633;42.716;23.312;2022-08-19T11:32:33;2.42;;;2.22;;
22935;SDS011;11633;42.716;23.312;2022-08-19T11:34:59;2.47;;;2.28;;
22935;SDS011;11633;42.716;23.312;2022-08-19T11:37:24;2.60;;;2.40;;
22935;SDS011;11633;42.716;23.312;2022-08-19T11:39:49;2.97;;;2.50;;
22935;SDS011;11633;42.716;23.312;2022-08-19T11:42:17;2.53;;;2.33;;
22935;SDS011;11633;42.716;23.312;2022-08-19T11:45:01;2.40;;;2.20;;
22935;SDS011;11633;42.716;23.312;2022-08-19T11:47:29;3.10;;;2.78;;
22935;SDS011;11633;42.716;23.312;2022-08-19T11:49:55;2.80;;;2.42;;
22935;SDS011;11633;42.716;23.312;2022-08-19T11:52:20;2.65;;;2.40;;
22935;SDS011;11633;42.716;23.312;2022-08-19T11:54:45;2.53;;;2.33;;
22935;SDS011;11633;42.716;23.312;2022-08-19T11:57:11;3.27;;;2.20;;
22935;SDS011;11633;42.716;23.312;2022-08-19T11:59:36;2.70;;;2.35;;
22935;SDS011;11633;42.716;23.312;2022-08-19T12:02:01;2.80;;;2.20;;
22935;SDS011;11633;42.716;23.312;2022-08-19T12:04:26;2.83;;;2.42;;
22935;SDS011;11633;42.716;23.312;2022-08-19T12:06:52;2.40;;;2.15;;
22935;SDS011;11633;42.716;23.312;2022-08-19T12:09:17;2.42;;;2.22;;
22935;SDS011;11633;42.716;23.312;2022-08-19T12:11:43;2.17;;;2.00;;
22935;SDS011;11633;42.716;23.312;2022-08-19T12:14:10;2.17;;;2.00;;
22935;SDS011;11633;42.716;23.312;2022-08-19T12:16:35;2.67;;;2.47;;
22935;SDS011;11633;42.716;23.312;2022-08-19T12:19:01;2.70;;;2.50;;
22935;SDS011;11633;42.716;23.312;2022-08-19T12:21:29;2.25;;;1.98;;
22935;SDS011;11633;42.716;23.312;2022-08-19T12:23:55;2.08;;;1.98;;
22935;SDS011;11633;42.716;23.312;2022-08-19T12:26:20;3.88;;;2.17;;
22935;SDS011;11633;42.716;23.312;2022-08-19T12:28:46;2.20;;;2.00;;
22935;SDS011;11633;42.716;23.312;2022-08-19T12:31:12;3.53;;;2.70;;
22935;SDS011;11633;42.716;23.312;2022-08-19T12:33:37;2.78;;;2.05;;
22935;SDS011;11633;42.716;23.312;2022-08-19T12:36:05;3.22;;;2.53;;
22935;SDS011;11633;42.716;23.312;2022-08-19T12:38:30;2.72;;;2.42;;
22935;SDS011;11633;42.716;23.312;2022-08-19T12:40:57;3.13;;;2.78;;
22935;SDS011;11633;42.716;23.312;2022-08-19T12:43:22;2.55;;;2.35;;
22935;SDS011;11633;42.716;23.312;2022-08-19T12:45:48;2.85;;;2.20;;
22935;SDS011;11633;42.716;23.312;2022-08-19T12:48:13;2.70;;;2.42;;
22935;SDS011;11633;42.716;23.312;2022-08-19T12:50:43;2.42;;;2.10;;
22935;SDS011;11633;42.716;23.312;2022-08-19T12:53:10;3.20;;;2.55;;
22935;SDS011;11633;42.716;23.312;2022-08-19T12:55:35;2.78;;;2.42;;
22935;SDS011;11633;42.716;23.312;2022-08-19T12:58:00;2.90;;;2.30;;
22935;SDS011;11633;42.716;23.312;2022-08-19T13:00:28;2.85;;;2.28;;
22935;SDS011;11633;42.716;23.312;2022-08-19T13:02:55;3.15;;;2.90;;
22935;SDS011;11633;42.716;23.312;2022-08-19T13:05:21;2.65;;;2.45;;
22935;SDS011;11633;42.716;23.312;2022-08-19T13:07:48;2.67;;;2.38;;
22935;SDS011;11633;42.716;23.312;2022-08-19T13:10:14;3.22;;;2.90;;
22935;SDS011;11633;42.716;23.312;2022-08-19T13:12:40;2.30;;;2.15;;
22935;SDS011;11633;42.716;23.312;2022-08-19T13:15:06;2.40;;;2.20;;
22935;SDS011;11633;42.716;23.312;2022-08-19T13:17:33;2.45;;;2.20;;
22935;SDS011;11633;42.716;23.312;2022-08-19T13:19:58;2.95;;;2.65;;
22935;SDS011;11633;42.716;23.312;2022-08-19T13:22:24;2.50;;;2.30;;
22935;SDS011;11633;42.716;23.312;2022-08-19T13:24:49;2.72;;;2.50;;
22935;SDS011;11633;42.716;23.312;2022-08-19T13:27:15;2.45;;;2.30;;
22935;SDS011;11633;42.716;23.312;2022-08-19T13:29:40;2.53;;;2.33;;
22935;SDS011;11633;42.716;23.312;2022-08-19T13:32:24;2.80;;;2.55;;
22935;SDS011;11633;42.716;23.312;2022-08-19T13:35:08;2.97;;;2.50;;
22935;SDS011;11633;42.716;23.312;2022-08-19T13:37:33;2.67;;;2.47;;
22935;SDS011;11633;42.716;23.312;2022-08-19T13:40:08;2.90;;;2.70;;
22935;SDS011;11633;42.716;23.312;2022-08-19T13:42:37;2.70;;;2.50;;
22935;SDS011;11633;42.716;23.312;2022-08-19T13:45:02;3.05;;;2.25;;
22935;SDS011;11633;42.716;23.312;2022-08-19T13:47:29;2.75;;;2.50;;
22935;SDS011;11633;42.716;23.312;2022-08-19T13:49:55;2.75;;;2.55;;
22935;SDS011;11633;42.716;23.312;2022-08-19T13:52:20;2.57;;;2.37;;
22935;SDS011;11633;42.716;23.312;2022-08-19T13:54:45;2.83;;;2.60;;
22935;SDS011;11633;42.716;23.312;2022-08-19T13:57:10;2.20;;;2.00;;
22935;SDS011;11633;42.716;23.312;2022-08-19T13:59:37;4.38;;;2.60;;
22935;SDS011;11633;42.716;23.312;2022-08-19T14:02:03;3.25;;;2.95;;
22935;SDS011;11633;42.716;23.312;2022-08-19T14:04:30;2.70;;;2.50;;
22935;SDS011;11633;42.716;23.312;2022-08-19T14:06:55;2.27;;;2.07;;
22935;SDS011;11633;42.716;23.312;2022-08-19T14:09:20;2.33;;;2.13;;
22935;SDS011;11633;42.716;23.312;2022-08-19T14:11:46;4.27;;;2.60;;
22935;SDS011;11633;42.716;23.312;2022-08-19T14:14:11;2.80;;;2.60;;
22935;SDS011;11633;42.716;23.312;2022-08-19T14:16:37;2.50;;;2.30;;
22935;SDS011;11633;42.716;23.312;2022-08-19T14:19:02;3.80;;;2.92;;
22935;SDS011;11633;42.716;23.312;2022-08-19T14:21:27;2.92;;;2.60;;
22935;SDS011;11633;42.716;23.312;2022-08-19T14:23:53;2.50;;;2.30;;
22935;SDS011;11633;42.716;23.312;2022-08-19T14:26:19;2.75;;;2.55;;
22935;SDS011;11633;42.716;23.312;2022-08-19T14:28:45;2.78;;;2.55;;
22935;SDS011;11633;42.716;23.312;2022-08-19T14:31:11;2.55;;;2.05;;
22935;SDS011;11633;42.716;23.312;2022-08-19T14:33:36;2.83;;;2.63;;
22935;SDS011;11633;42.716;23.312;2022-08-19T14:36:02;2.38;;;2.22;;
22935;SDS011;11633;42.716;23.312;2022-08-19T14:38:28;2.75;;;2.50;;
22935;SDS011;11633;42.716;23.312;2022-08-19T14:41:05;2.65;;;2.45;;
22935;SDS011;11633;42.716;23.312;2022-08-19T14:43:30;2.30;;;2.15;;
22935;SDS011;11633;42.716;23.312;2022-08-19T14:45:56;3.37;;;2.80;;
22935;SDS011;11633;42.716;23.312;2022-08-19T14:48:21;2.63;;;2.42;;
22935;SDS011;11633;42.716;23.312;2022-08-19T14:50:47;3.20;;;2.43;;